Plain City, Ohio
Current Conditions -  °F | °C
As of 12:33 PM on Friday 19 Dec 2014 (Local Time) from KMRT Reporting Station
Overcast Overcast  
Wind Chill: 24°   Ceiling: 1200
Heat Index: 29°   Visibility: 5mi
Dew Point: 24°   Wind: 5mph
Humidity: 80%   Direction: 280°W
Pressure: 30.25"   Gusts: NA
Location:  40.11°N, 83.27°W
Report Text: KMRT 191733Z AUTO 28004KT 5SM OVC012 M02/M05 A3025 RMK AO2 T10161047
Loading
Personal Weather Stations






























Interactive Weather Map New forecast layout! Learn more

10-Day Weather Forecast

Advertisements
Track Severe Weather on mobile